createdAt,value
2023-05-02T00:03:55.109Z,4.72
2023-05-02T00:08:57.065Z,4.38
2023-05-02T00:13:58.656Z,5.38
2023-05-02T00:19:00.227Z,5.07
2023-05-02T00:24:01.822Z,7.18
2023-05-02T00:29:03.440Z,5.38
2023-05-02T00:34:05.093Z,5.50
2023-05-02T00:39:06.712Z,5.78
2023-05-02T00:44:08.686Z,5.55
2023-05-02T00:49:10.381Z,6.13
2023-05-02T00:54:13.687Z,4.60
2023-05-02T00:59:16.464Z,6.00
2023-05-02T01:04:29.173Z,5.40
2023-05-02T01:10:09.376Z,4.43
2023-05-02T01:15:16.546Z,7.10
2023-05-02T01:20:21.728Z,6.10
2023-05-02T01:26:02.528Z,4.80
2023-05-02T01:31:06.075Z,5.03
2023-05-02T01:36:09.009Z,7.95
2023-05-02T01:41:13.021Z,5.38
2023-05-02T01:46:15.304Z,6.75
2023-05-02T01:51:19.142Z,4.47
2023-05-02T01:56:22.006Z,4.80
2023-05-02T02:01:27.653Z,5.90
2023-05-02T02:06:29.419Z,5.13
2023-05-02T02:11:51.018Z,5.15
2023-05-02T02:16:56.255Z,7.22
2023-05-02T02:21:59.348Z,4.53
2023-05-02T02:27:00.997Z,5.18
2023-05-02T02:32:02.634Z,4.18
2023-05-02T02:37:19.194Z,7.03
2023-05-02T02:47:43.929Z,4.22
2023-05-02T02:52:54.507Z,5.97
2023-05-02T02:58:04.143Z,5.47
2023-05-02T03:03:08.012Z,5.43
2023-05-02T03:08:10.052Z,5.07
2023-05-02T03:13:11.671Z,10.35
2023-05-02T03:18:13.345Z,5.38
2023-05-02T03:23:15.458Z,6.97
2023-05-02T03:28:17.027Z,5.60
2023-05-02T03:33:18.951Z,5.35
2023-05-02T03:38:20.647Z,5.50
2023-05-02T03:43:22.306Z,5.55
2023-05-02T03:48:24.012Z,7.28
2023-05-02T03:53:25.652Z,5.10
2023-05-02T03:58:27.624Z,5.57
2023-05-02T04:03:30.149Z,7.15
2023-05-02T04:08:31.863Z,5.57
2023-05-02T04:13:33.519Z,5.30
2023-05-02T04:18:35.221Z,5.70
2023-05-02T04:23:36.861Z,5.82
2023-05-02T04:28:38.540Z,4.10
2023-05-02T04:33:40.072Z,4.93
2023-05-02T04:38:42.294Z,6.18
2023-05-02T04:43:44.585Z,5.57
2023-05-02T04:48:46.351Z,4.40
2023-05-02T04:53:47.987Z,5.20
2023-05-02T04:58:49.700Z,7.40
2023-05-02T05:03:51.501Z,5.10
2023-05-02T05:08:53.214Z,5.70
2023-05-02T05:13:54.831Z,7.55
2023-05-02T05:18:56.436Z,4.68
2023-05-02T05:23:58.025Z,6.28
2023-05-02T05:28:59.649Z,4.78
2023-05-02T05:34:02.512Z,4.95
2023-05-02T05:39:04.480Z,4.80
2023-05-02T05:44:06.078Z,9.13
2023-05-02T05:49:07.672Z,5.35
2023-05-02T05:54:09.284Z,4.72
2023-05-02T05:59:10.964Z,5.68
2023-05-02T06:04:12.679Z,5.63
2023-05-02T06:09:14.370Z,5.75
2023-05-02T06:14:16.400Z,4.97
2023-05-02T06:19:18.002Z,5.75
2023-05-02T06:24:20.973Z,6.05
2023-05-02T06:29:22.583Z,5.93
2023-05-02T06:34:24.236Z,7.68
2023-05-02T06:39:25.824Z,7.32
2023-05-02T06:44:27.476Z,6.93
2023-05-02T06:49:29.060Z,6.32
2023-05-02T06:54:30.671Z,5.45
2023-05-02T06:59:32.257Z,6.22
2023-05-02T07:04:33.884Z,5.97
2023-05-02T07:09:35.664Z,6.03
2023-05-02T07:14:37.311Z,5.68
2023-05-02T07:19:38.933Z,5.53
2023-05-02T07:24:41.881Z,7.22
2023-05-02T07:29:43.506Z,6.90
2023-05-02T07:34:45.313Z,5.00
2023-05-02T07:39:46.950Z,5.88
2023-05-02T07:44:48.588Z,4.70
2023-05-02T07:49:54.352Z,5.55
2023-05-02T07:54:56.421Z,3.90
2023-05-02T07:59:58.131Z,4.85
2023-05-02T08:04:59.848Z,5.05
2023-05-02T08:10:02.071Z,5.28
2023-05-02T08:15:09.197Z,5.07
2023-05-02T08:20:11.154Z,4.97
2023-05-02T08:25:12.726Z,6.40
2023-05-02T08:30:14.634Z,4.88
2023-05-02T08:35:16.419Z,6.43
2023-05-02T08:40:27.089Z,5.13
2023-05-02T08:45:39.236Z,5.93
2023-05-02T08:50:43.585Z,4.68
2023-05-02T08:55:46.260Z,5.22
2023-05-02T09:00:49.182Z,6.20
2023-05-02T09:06:01.955Z,4.28
2023-05-02T09:11:04.862Z,4.28
2023-05-02T09:16:11.677Z,5.75
2023-05-02T09:21:21.040Z,4.32
2023-05-02T09:26:29.554Z,4.15
2023-05-02T09:31:55.094Z,3.40
2023-05-02T09:36:58.452Z,2.90
2023-05-02T09:42:00.153Z,2.78
2023-05-02T09:47:02.358Z,3.78
2023-05-02T09:52:14.504Z,5.25
2023-05-02T09:57:16.356Z,2.70
2023-05-02T10:02:18.237Z,2.97
2023-05-02T10:07:21.121Z,3.03
2023-05-02T10:12:26.871Z,3.08
2023-05-02T10:17:32.207Z,2.93
2023-05-02T10:22:35.447Z,3.83
2023-05-02T10:27:37.962Z,3.47
2023-05-02T10:32:40.425Z,3.97
2023-05-02T10:37:42.895Z,2.50
2023-05-02T10:42:48.012Z,2.38
2023-05-02T10:47:49.715Z,2.83
2023-05-02T10:52:51.487Z,2.65
2023-05-02T10:57:59.457Z,3.75
2023-05-02T11:03:02.265Z,2.88
2023-05-02T11:08:24.379Z,4.60
2023-05-02T11:13:51.295Z,5.35
2023-05-02T11:19:01.811Z,3.75
2023-05-02T11:24:38.919Z,2.67
2023-05-02T11:29:53.985Z,2.90
2023-05-02T11:34:56.136Z,2.90
2023-05-02T11:40:13.964Z,3.60
2023-05-02T11:45:15.782Z,2.65
2023-05-02T11:50:18.482Z,2.60
2023-05-02T11:55:20.078Z,3.05
2023-05-02T12:00:27.634Z,2.42
2023-05-02T12:05:30.410Z,3.53
2023-05-02T12:10:38.588Z,3.03
2023-05-02T12:15:40.646Z,2.15
2023-05-02T12:20:43.124Z,2.50
2023-05-02T12:25:44.752Z,4.68
2023-05-02T12:30:49.294Z,2.15
2023-05-02T12:35:51.311Z,3.33
2023-05-02T12:40:54.658Z,2.42
2023-05-02T12:46:12.139Z,3.88
2023-05-02T12:51:28.665Z,3.05
2023-05-02T12:56:32.840Z,2.30
2023-05-02T13:01:35.008Z,3.05
2023-05-02T13:06:38.465Z,3.75
2023-05-02T13:11:40.436Z,2.85
2023-05-02T13:16:42.190Z,4.22
2023-05-02T13:21:43.854Z,3.08
2023-05-02T13:26:46.299Z,2.25
2023-05-02T13:31:47.850Z,3.03
2023-05-02T13:36:49.471Z,5.03
2023-05-02T13:41:51.027Z,2.65
2023-05-02T13:46:52.627Z,2.90
2023-05-02T13:51:54.260Z,3.05
2023-05-02T13:56:55.972Z,2.42
2023-05-02T14:01:57.766Z,5.15
2023-05-02T14:06:59.445Z,2.25
2023-05-02T14:12:02.075Z,3.33
2023-05-02T14:17:04.052Z,2.00
2023-05-02T14:22:05.631Z,1.73
2023-05-02T14:27:09.335Z,2.20
2023-05-02T14:32:10.945Z,1.83
2023-05-02T14:37:12.568Z,2.22
2023-05-02T14:42:14.179Z,2.08
2023-05-02T14:47:15.815Z,2.15
2023-05-02T14:52:17.447Z,1.55
2023-05-02T14:57:19.494Z,1.00
2023-05-02T15:02:21.943Z,1.85
2023-05-02T15:07:24.008Z,2.00
2023-05-02T15:12:26.853Z,2.50
2023-05-02T15:17:28.421Z,1.73
2023-05-02T15:22:29.971Z,3.13
2023-05-02T15:27:31.622Z,2.08
2023-05-02T15:32:33.536Z,2.75
2023-05-02T15:37:35.513Z,0.80
2023-05-02T15:42:37.315Z,1.45
2023-05-02T15:47:39.634Z,1.45
2023-05-02T15:52:41.594Z,2.00
2023-05-02T15:57:43.619Z,1.17
2023-05-02T16:02:45.335Z,0.63
2023-05-02T16:07:47.119Z,2.03
2023-05-02T16:12:48.768Z,1.42
2023-05-02T16:17:50.716Z,1.42
2023-05-02T16:22:52.403Z,0.88
2023-05-02T16:27:53.992Z,8.18
2023-05-02T16:32:55.805Z,1.20
2023-05-02T16:37:57.526Z,0.90
2023-05-02T16:42:59.276Z,1.33
2023-05-02T16:48:00.956Z,2.33
2023-05-02T16:53:02.850Z,0.63
2023-05-02T16:58:04.487Z,1.25
2023-05-02T17:03:06.475Z,0.80
2023-05-02T17:08:09.205Z,0.65
2023-05-02T17:13:12.949Z,0.50
2023-05-02T17:18:14.620Z,2.05
2023-05-02T17:23:16.368Z,0.77
2023-05-02T17:28:18.250Z,0.70
2023-05-02T17:33:21.100Z,0.73
2023-05-02T17:38:22.980Z,0.45
2023-05-02T17:43:27.260Z,0.47
2023-05-02T17:48:29.710Z,0.63
2023-05-02T17:53:31.526Z,3.05
2023-05-02T17:58:35.443Z,0.90
2023-05-02T18:03:39.206Z,1.40
2023-05-02T18:08:41.600Z,1.13
2023-05-02T18:13:43.855Z,0.98
2023-05-02T18:18:45.891Z,0.70
2023-05-02T18:23:47.684Z,1.55
2023-05-02T18:28:54.715Z,2.03
2023-05-02T18:33:56.518Z,2.25
2023-05-02T18:38:58.642Z,3.78
2023-05-02T18:44:06.722Z,2.22
2023-05-02T18:49:09.735Z,1.05
2023-05-02T18:54:11.965Z,1.05
2023-05-02T18:59:14.000Z,1.25
2023-05-02T19:04:17.966Z,0.50
2023-05-02T19:09:20.897Z,0.80
2023-05-02T19:14:23.276Z,0.90
2023-05-02T19:19:25.404Z,2.38
2023-05-02T19:24:27.959Z,1.88
2023-05-02T19:29:30.551Z,0.60
2023-05-02T19:34:33.472Z,1.20
2023-05-02T19:39:36.183Z,0.85
2023-05-02T19:44:38.516Z,1.13
2023-05-02T19:49:40.519Z,0.80
2023-05-02T19:54:42.673Z,1.58
2023-05-02T19:59:44.740Z,0.70
2023-05-02T20:04:47.130Z,1.02
2023-05-02T20:09:48.865Z,1.13
2023-05-02T20:14:50.560Z,1.00
2023-05-02T20:19:52.698Z,0.82
2023-05-02T20:24:54.613Z,1.35
2023-05-02T20:29:56.385Z,1.05
2023-05-02T20:34:58.180Z,2.42
2023-05-02T20:40:00.360Z,1.17
2023-05-02T20:45:04.968Z,0.90
2023-05-02T20:50:09.478Z,1.42
2023-05-02T20:55:11.331Z,0.95
2023-05-02T21:00:14.323Z,4.00
2023-05-02T21:05:15.986Z,2.70
2023-05-02T21:10:17.739Z,1.33
2023-05-02T21:15:19.332Z,1.25
2023-05-02T21:20:21.531Z,0.80
2023-05-02T21:25:23.641Z,2.75
2023-05-02T21:30:25.277Z,0.98
2023-05-02T21:35:28.771Z,0.93
2023-05-02T21:40:31.932Z,1.27
2023-05-02T21:45:33.566Z,1.35
2023-05-02T21:50:35.145Z,0.82
2023-05-02T21:55:37.739Z,0.82
2023-05-02T22:00:40.827Z,1.23
2023-05-02T22:05:42.553Z,0.77
2023-05-02T22:10:44.342Z,0.90
2023-05-02T22:15:47.406Z,1.33
2023-05-02T22:20:49.040Z,3.05
2023-05-02T22:25:50.757Z,0.60
2023-05-02T22:30:52.404Z,1.35
2023-05-02T22:35:54.003Z,0.60
2023-05-02T22:40:55.591Z,1.25
2023-05-02T22:45:57.227Z,0.70
2023-05-02T22:50:58.897Z,0.98
2023-05-02T22:56:00.639Z,1.08
2023-05-02T23:01:02.317Z,0.70
2023-05-02T23:06:04.113Z,0.60
2023-05-02T23:11:05.939Z,1.30
2023-05-02T23:16:07.737Z,0.88
2023-05-02T23:21:16.394Z,1.73
2023-05-02T23:26:17.988Z,1.10
2023-05-02T23:31:19.679Z,1.45
2023-05-02T23:36:21.669Z,2.45
2023-05-02T23:41:23.525Z,2.08
2023-05-02T23:46:25.683Z,1.50
2023-05-02T23:51:28.488Z,1.25
2023-05-02T23:56:30.101Z,7.50
